sensor_id;sensor_type;location;lat;lon;timestamp;P1;durP1;ratioP1;P2;durP2;ratioP2
15929;SDS011;8064;51.142;4.780;2023-05-29T00:02:08;18.20;;;16.90;;
15929;SDS011;8064;51.142;4.780;2023-05-29T00:04:34;19.33;;;17.67;;
15929;SDS011;8064;51.142;4.780;2023-05-29T00:07:01;18.80;;;17.40;;
15929;SDS011;8064;51.142;4.780;2023-05-29T00:09:27;17.80;;;16.47;;
15929;SDS011;8064;51.142;4.780;2023-05-29T00:11:54;19.17;;;17.33;;
15929;SDS011;8064;51.142;4.780;2023-05-29T00:14:20;20.13;;;18.27;;
15929;SDS011;8064;51.142;4.780;2023-05-29T00:16:47;20.13;;;18.17;;
15929;SDS011;8064;51.142;4.780;2023-05-29T00:19:14;22.10;;;19.80;;
15929;SDS011;8064;51.142;4.780;2023-05-29T00:21:50;19.87;;;18.10;;
15929;SDS011;8064;51.142;4.780;2023-05-29T00:24:16;19.57;;;18.17;;
15929;SDS011;8064;51.142;4.780;2023-05-29T00:26:42;20.57;;;18.87;;
15929;SDS011;8064;51.142;4.780;2023-05-29T00:29:08;21.43;;;19.63;;
15929;SDS011;8064;51.142;4.780;2023-05-29T00:31:34;19.63;;;18.33;;
15929;SDS011;8064;51.142;4.780;2023-05-29T00:34:01;20.50;;;18.83;;
15929;SDS011;8064;51.142;4.780;2023-05-29T00:36:27;21.27;;;19.33;;
15929;SDS011;8064;51.142;4.780;2023-05-29T00:38:54;20.83;;;18.97;;
15929;SDS011;8064;51.142;4.780;2023-05-29T00:41:20;21.90;;;20.13;;
15929;SDS011;8064;51.142;4.780;2023-05-29T00:43:46;21.67;;;19.70;;
15929;SDS011;8064;51.142;4.780;2023-05-29T00:46:12;20.93;;;19.17;;
15929;SDS011;8064;51.142;4.780;2023-05-29T00:48:39;21.37;;;20.00;;
15929;SDS011;8064;51.142;4.780;2023-05-29T00:51:18;21.37;;;19.77;;
15929;SDS011;8064;51.142;4.780;2023-05-29T00:53:44;21.80;;;19.90;;
15929;SDS011;8064;51.142;4.780;2023-05-29T00:56:10;22.03;;;20.53;;
15929;SDS011;8064;51.142;4.780;2023-05-29T00:58:37;22.40;;;20.80;;
15929;SDS011;8064;51.142;4.780;2023-05-29T01:01:03;21.73;;;20.23;;
15929;SDS011;8064;51.142;4.780;2023-05-29T01:03:30;21.50;;;19.73;;
15929;SDS011;8064;51.142;4.780;2023-05-29T01:05:57;22.20;;;20.70;;
15929;SDS011;8064;51.142;4.780;2023-05-29T01:08:23;22.10;;;20.57;;
15929;SDS011;8064;51.142;4.780;2023-05-29T01:10:49;22.40;;;20.70;;
15929;SDS011;8064;51.142;4.780;2023-05-29T01:13:19;21.60;;;20.07;;
15929;SDS011;8064;51.142;4.780;2023-05-29T01:16:01;22.00;;;20.30;;
15929;SDS011;8064;51.142;4.780;2023-05-29T01:18:36;21.93;;;20.07;;
15929;SDS011;8064;51.142;4.780;2023-05-29T01:26:50;22.17;;;20.57;;
15929;SDS011;8064;51.142;4.780;2023-05-29T01:29:23;22.60;;;20.90;;
15929;SDS011;8064;51.142;4.780;2023-05-29T01:31:52;21.47;;;19.80;;
15929;SDS011;8064;51.142;4.780;2023-05-29T01:34:18;21.60;;;19.97;;
15929;SDS011;8064;51.142;4.780;2023-05-29T01:36:44;22.37;;;20.27;;
15929;SDS011;8064;51.142;4.780;2023-05-29T01:39:11;21.80;;;20.20;;
15929;SDS011;8064;51.142;4.780;2023-05-29T01:41:37;21.53;;;19.77;;
15929;SDS011;8064;51.142;4.780;2023-05-29T01:44:04;21.70;;;20.00;;
15929;SDS011;8064;51.142;4.780;2023-05-29T01:46:33;22.03;;;20.40;;
15929;SDS011;8064;51.142;4.780;2023-05-29T01:49:01;21.53;;;19.83;;
15929;SDS011;8064;51.142;4.780;2023-05-29T01:51:27;19.40;;;17.80;;
15929;SDS011;8064;51.142;4.780;2023-05-29T01:53:53;21.40;;;19.40;;
15929;SDS011;8064;51.142;4.780;2023-05-29T01:56:19;19.90;;;18.23;;
15929;SDS011;8064;51.142;4.780;2023-05-29T01:58:46;20.57;;;18.67;;
15929;SDS011;8064;51.142;4.780;2023-05-29T02:01:13;21.30;;;19.73;;
15929;SDS011;8064;51.142;4.780;2023-05-29T02:03:38;19.13;;;17.23;;
15929;SDS011;8064;51.142;4.780;2023-05-29T02:06:04;20.77;;;18.73;;
15929;SDS011;8064;51.142;4.780;2023-05-29T02:08:31;20.50;;;18.63;;
15929;SDS011;8064;51.142;4.780;2023-05-29T02:10:57;19.27;;;17.73;;
15929;SDS011;8064;51.142;4.780;2023-05-29T02:13:23;19.23;;;17.40;;
15929;SDS011;8064;51.142;4.780;2023-05-29T02:15:48;19.33;;;17.63;;
15929;SDS011;8064;51.142;4.780;2023-05-29T02:18:15;20.10;;;17.43;;
15929;SDS011;8064;51.142;4.780;2023-05-29T02:20:43;19.53;;;16.77;;
15929;SDS011;8064;51.142;4.780;2023-05-29T02:23:10;18.37;;;16.63;;
15929;SDS011;8064;51.142;4.780;2023-05-29T02:25:36;17.00;;;15.53;;
15929;SDS011;8064;51.142;4.780;2023-05-29T02:28:02;17.83;;;16.13;;
15929;SDS011;8064;51.142;4.780;2023-05-29T02:30:28;18.13;;;16.37;;
15929;SDS011;8064;51.142;4.780;2023-05-29T02:32:54;18.07;;;16.30;;
15929;SDS011;8064;51.142;4.780;2023-05-29T02:35:20;17.70;;;16.17;;
15929;SDS011;8064;51.142;4.780;2023-05-29T02:37:48;17.10;;;15.37;;
15929;SDS011;8064;51.142;4.780;2023-05-29T02:40:14;16.93;;;15.23;;
15929;SDS011;8064;51.142;4.780;2023-05-29T02:42:40;19.27;;;17.20;;
15929;SDS011;8064;51.142;4.780;2023-05-29T02:45:06;18.03;;;16.47;;
15929;SDS011;8064;51.142;4.780;2023-05-29T02:47:32;18.10;;;16.40;;
15929;SDS011;8064;51.142;4.780;2023-05-29T02:49:58;18.43;;;16.53;;
15929;SDS011;8064;51.142;4.780;2023-05-29T02:52:24;18.47;;;16.67;;
15929;SDS011;8064;51.142;4.780;2023-05-29T02:54:49;15.87;;;14.50;;
15929;SDS011;8064;51.142;4.780;2023-05-29T02:57:15;16.60;;;15.00;;
15929;SDS011;8064;51.142;4.780;2023-05-29T02:59:41;17.97;;;15.07;;
15929;SDS011;8064;51.142;4.780;2023-05-29T03:02:09;18.77;;;17.17;;
15929;SDS011;8064;51.142;4.780;2023-05-29T03:04:35;16.47;;;15.03;;
15929;SDS011;8064;51.142;4.780;2023-05-29T03:07:00;16.97;;;15.47;;
15929;SDS011;8064;51.142;4.780;2023-05-29T03:09:26;18.40;;;15.77;;
15929;SDS011;8064;51.142;4.780;2023-05-29T03:11:52;16.73;;;15.13;;
15929;SDS011;8064;51.142;4.780;2023-05-29T03:14:18;15.30;;;13.90;;
15929;SDS011;8064;51.142;4.780;2023-05-29T03:16:44;16.00;;;14.57;;
15929;SDS011;8064;51.142;4.780;2023-05-29T03:19:10;17.43;;;15.70;;
15929;SDS011;8064;51.142;4.780;2023-05-29T03:21:36;16.70;;;15.17;;
15929;SDS011;8064;51.142;4.780;2023-05-29T03:24:02;16.47;;;15.03;;
15929;SDS011;8064;51.142;4.780;2023-05-29T03:26:28;16.87;;;15.47;;
15929;SDS011;8064;51.142;4.780;2023-05-29T03:28:54;16.73;;;14.97;;
15929;SDS011;8064;51.142;4.780;2023-05-29T03:31:20;17.07;;;13.57;;
15929;SDS011;8064;51.142;4.780;2023-05-29T03:33:46;19.23;;;15.40;;
15929;SDS011;8064;51.142;4.780;2023-05-29T03:36:13;17.20;;;13.83;;
15929;SDS011;8064;51.142;4.780;2023-05-29T03:38:39;17.03;;;14.30;;
15929;SDS011;8064;51.142;4.780;2023-05-29T03:41:04;15.40;;;13.97;;
15929;SDS011;8064;51.142;4.780;2023-05-29T03:43:30;18.20;;;15.07;;
15929;SDS011;8064;51.142;4.780;2023-05-29T03:45:56;17.70;;;15.03;;
15929;SDS011;8064;51.142;4.780;2023-05-29T03:48:22;15.50;;;14.00;;
15929;SDS011;8064;51.142;4.780;2023-05-29T03:50:49;15.90;;;14.33;;
15929;SDS011;8064;51.142;4.780;2023-05-29T03:53:15;16.00;;;14.20;;
15929;SDS011;8064;51.142;4.780;2023-05-29T03:55:41;17.00;;;15.30;;
15929;SDS011;8064;51.142;4.780;2023-05-29T03:58:06;16.60;;;15.13;;
15929;SDS011;8064;51.142;4.780;2023-05-29T04:00:32;15.83;;;14.50;;
15929;SDS011;8064;51.142;4.780;2023-05-29T04:02:58;15.97;;;14.57;;
15929;SDS011;8064;51.142;4.780;2023-05-29T04:05:24;16.60;;;15.03;;
15929;SDS011;8064;51.142;4.780;2023-05-29T04:07:50;21.10;;;14.30;;
15929;SDS011;8064;51.142;4.780;2023-05-29T04:10:16;17.77;;;13.67;;
15929;SDS011;8064;51.142;4.780;2023-05-29T04:12:42;20.97;;;13.87;;
15929;SDS011;8064;51.142;4.780;2023-05-29T04:15:08;15.03;;;13.87;;
15929;SDS011;8064;51.142;4.780;2023-05-29T04:17:34;15.77;;;14.17;;
15929;SDS011;8064;51.142;4.780;2023-05-29T04:20:00;17.07;;;14.80;;
15929;SDS011;8064;51.142;4.780;2023-05-29T04:22:33;17.10;;;15.07;;
15929;SDS011;8064;51.142;4.780;2023-05-29T04:25:00;18.73;;;14.03;;
15929;SDS011;8064;51.142;4.780;2023-05-29T04:27:26;18.60;;;14.17;;
15929;SDS011;8064;51.142;4.780;2023-05-29T04:29:51;16.67;;;13.90;;
15929;SDS011;8064;51.142;4.780;2023-05-29T04:32:18;14.60;;;13.27;;
15929;SDS011;8064;51.142;4.780;2023-05-29T04:34:44;26.47;;;15.30;;
15929;SDS011;8064;51.142;4.780;2023-05-29T04:37:10;19.17;;;15.93;;
15929;SDS011;8064;51.142;4.780;2023-05-29T04:39:36;15.23;;;12.93;;
15929;SDS011;8064;51.142;4.780;2023-05-29T04:42:01;18.50;;;16.03;;
15929;SDS011;8064;51.142;4.780;2023-05-29T04:44:27;16.80;;;13.60;;
15929;SDS011;8064;51.142;4.780;2023-05-29T04:46:54;17.90;;;14.97;;
15929;SDS011;8064;51.142;4.780;2023-05-29T04:49:22;16.90;;;15.43;;
15929;SDS011;8064;51.142;4.780;2023-05-29T04:51:48;19.73;;;15.50;;
15929;SDS011;8064;51.142;4.780;2023-05-29T04:54:17;18.47;;;15.00;;
15929;SDS011;8064;51.142;4.780;2023-05-29T04:56:44;18.57;;;14.87;;
15929;SDS011;8064;51.142;4.780;2023-05-29T04:59:11;16.73;;;15.13;;
15929;SDS011;8064;51.142;4.780;2023-05-29T05:01:37;17.93;;;15.67;;
15929;SDS011;8064;51.142;4.780;2023-05-29T05:04:03;17.33;;;15.60;;
15929;SDS011;8064;51.142;4.780;2023-05-29T05:06:29;17.77;;;14.87;;
15929;SDS011;8064;51.142;4.780;2023-05-29T05:08:54;18.50;;;15.00;;
15929;SDS011;8064;51.142;4.780;2023-05-29T05:11:21;16.63;;;14.93;;
15929;SDS011;8064;51.142;4.780;2023-05-29T05:13:48;19.87;;;16.67;;
15929;SDS011;8064;51.142;4.780;2023-05-29T05:16:14;20.17;;;15.60;;
15929;SDS011;8064;51.142;4.780;2023-05-29T05:18:41;20.70;;;15.57;;
15929;SDS011;8064;51.142;4.780;2023-05-29T05:21:08;19.97;;;15.83;;
15929;SDS011;8064;51.142;4.780;2023-05-29T05:23:35;18.03;;;16.27;;
15929;SDS011;8064;51.142;4.780;2023-05-29T05:26:01;18.50;;;16.67;;
15929;SDS011;8064;51.142;4.780;2023-05-29T05:28:27;18.07;;;16.33;;
15929;SDS011;8064;51.142;4.780;2023-05-29T05:30:53;17.90;;;15.93;;
15929;SDS011;8064;51.142;4.780;2023-05-29T05:33:19;17.67;;;15.83;;
15929;SDS011;8064;51.142;4.780;2023-05-29T05:35:45;18.70;;;16.93;;
15929;SDS011;8064;51.142;4.780;2023-05-29T05:38:11;17.17;;;15.77;;
15929;SDS011;8064;51.142;4.780;2023-05-29T05:40:37;17.93;;;16.20;;
15929;SDS011;8064;51.142;4.780;2023-05-29T05:43:03;17.63;;;15.70;;
15929;SDS011;8064;51.142;4.780;2023-05-29T05:45:28;19.53;;;17.20;;
15929;SDS011;8064;51.142;4.780;2023-05-29T05:47:54;18.23;;;16.43;;
15929;SDS011;8064;51.142;4.780;2023-05-29T05:50:21;19.87;;;16.23;;
15929;SDS011;8064;51.142;4.780;2023-05-29T05:52:47;19.13;;;16.30;;
15929;SDS011;8064;51.142;4.780;2023-05-29T05:55:13;18.57;;;17.00;;
15929;SDS011;8064;51.142;4.780;2023-05-29T05:57:39;18.13;;;16.37;;
15929;SDS011;8064;51.142;4.780;2023-05-29T06:00:05;18.63;;;16.73;;
15929;SDS011;8064;51.142;4.780;2023-05-29T06:02:49;18.20;;;16.40;;
15929;SDS011;8064;51.142;4.780;2023-05-29T06:05:15;18.83;;;16.67;;
15929;SDS011;8064;51.142;4.780;2023-05-29T06:07:41;18.77;;;16.83;;
15929;SDS011;8064;51.142;4.780;2023-05-29T06:10:07;19.00;;;17.30;;
15929;SDS011;8064;51.142;4.780;2023-05-29T06:12:33;16.43;;;14.93;;
15929;SDS011;8064;51.142;4.780;2023-05-29T06:15:00;18.77;;;17.07;;
15929;SDS011;8064;51.142;4.780;2023-05-29T06:17:25;17.93;;;16.03;;
15929;SDS011;8064;51.142;4.780;2023-05-29T06:19:52;18.33;;;16.33;;
15929;SDS011;8064;51.142;4.780;2023-05-29T06:22:18;17.37;;;15.73;;
15929;SDS011;8064;51.142;4.780;2023-05-29T06:24:44;16.30;;;14.83;;
15929;SDS011;8064;51.142;4.780;2023-05-29T06:27:09;17.30;;;15.87;;
15929;SDS011;8064;51.142;4.780;2023-05-29T06:29:35;18.60;;;16.40;;
15929;SDS011;8064;51.142;4.780;2023-05-29T06:32:01;18.23;;;16.53;;
15929;SDS011;8064;51.142;4.780;2023-05-29T06:34:27;19.20;;;16.50;;
15929;SDS011;8064;51.142;4.780;2023-05-29T06:36:53;20.40;;;16.67;;
15929;SDS011;8064;51.142;4.780;2023-05-29T06:39:18;17.77;;;16.07;;
15929;SDS011;8064;51.142;4.780;2023-05-29T06:41:45;18.10;;;16.37;;
15929;SDS011;8064;51.142;4.780;2023-05-29T06:44:11;18.70;;;16.93;;
15929;SDS011;8064;51.142;4.780;2023-05-29T06:46:37;18.87;;;17.07;;
15929;SDS011;8064;51.142;4.780;2023-05-29T06:49:03;19.93;;;17.20;;
15929;SDS011;8064;51.142;4.780;2023-05-29T06:51:28;18.80;;;17.03;;
15929;SDS011;8064;51.142;4.780;2023-05-29T06:53:55;19.60;;;17.07;;
15929;SDS011;8064;51.142;4.780;2023-05-29T06:56:21;18.83;;;17.07;;
15929;SDS011;8064;51.142;4.780;2023-05-29T06:58:47;17.30;;;15.73;;
15929;SDS011;8064;51.142;4.780;2023-05-29T07:01:13;19.27;;;17.40;;
15929;SDS011;8064;51.142;4.780;2023-05-29T07:03:40;18.97;;;16.97;;
15929;SDS011;8064;51.142;4.780;2023-05-29T07:06:05;18.97;;;17.47;;
15929;SDS011;8064;51.142;4.780;2023-05-29T07:08:31;18.70;;;17.10;;
15929;SDS011;8064;51.142;4.780;2023-05-29T07:10:57;19.43;;;16.67;;
15929;SDS011;8064;51.142;4.780;2023-05-29T07:13:24;16.77;;;15.33;;
15929;SDS011;8064;51.142;4.780;2023-05-29T07:15:51;21.43;;;17.40;;
15929;SDS011;8064;51.142;4.780;2023-05-29T07:18:17;21.17;;;17.03;;
15929;SDS011;8064;51.142;4.780;2023-05-29T07:20:43;19.23;;;17.60;;
15929;SDS011;8064;51.142;4.780;2023-05-29T07:23:09;18.80;;;17.20;;
15929;SDS011;8064;51.142;4.780;2023-05-29T07:25:35;20.00;;;17.97;;
15929;SDS011;8064;51.142;4.780;2023-05-29T07:28:01;18.97;;;17.07;;
15929;SDS011;8064;51.142;4.780;2023-05-29T07:30:27;20.80;;;18.77;;
15929;SDS011;8064;51.142;4.780;2023-05-29T07:32:52;19.63;;;17.93;;
15929;SDS011;8064;51.142;4.780;2023-05-29T07:35:18;18.97;;;17.07;;
15929;SDS011;8064;51.142;4.780;2023-05-29T07:37:44;21.07;;;19.00;;
15929;SDS011;8064;51.142;4.780;2023-05-29T07:40:10;20.60;;;18.93;;
15929;SDS011;8064;51.142;4.780;2023-05-29T07:42:36;19.97;;;17.93;;
15929;SDS011;8064;51.142;4.780;2023-05-29T07:45:02;18.63;;;17.03;;
15929;SDS011;8064;51.142;4.780;2023-05-29T07:47:28;19.67;;;18.10;;
15929;SDS011;8064;51.142;4.780;2023-05-29T07:49:54;18.73;;;16.73;;
15929;SDS011;8064;51.142;4.780;2023-05-29T07:52:20;19.27;;;17.67;;
15929;SDS011;8064;51.142;4.780;2023-05-29T07:54:45;20.40;;;18.63;;
15929;SDS011;8064;51.142;4.780;2023-05-29T07:57:11;21.00;;;19.13;;
15929;SDS011;8064;51.142;4.780;2023-05-29T07:59:37;21.10;;;19.27;;
15929;SDS011;8064;51.142;4.780;2023-05-29T08:02:05;21.37;;;19.73;;
15929;SDS011;8064;51.142;4.780;2023-05-29T08:04:31;21.27;;;19.13;;
15929;SDS011;8064;51.142;4.780;2023-05-29T08:06:57;19.60;;;18.00;;
15929;SDS011;8064;51.142;4.780;2023-05-29T08:09:26;21.33;;;19.37;;
15929;SDS011;8064;51.142;4.780;2023-05-29T08:11:52;20.50;;;18.70;;
15929;SDS011;8064;51.142;4.780;2023-05-29T08:14:18;20.97;;;19.27;;
15929;SDS011;8064;51.142;4.780;2023-05-29T08:16:43;20.57;;;18.53;;
15929;SDS011;8064;51.142;4.780;2023-05-29T08:19:09;20.03;;;18.47;;
15929;SDS011;8064;51.142;4.780;2023-05-29T08:21:35;24.67;;;22.57;;
15929;SDS011;8064;51.142;4.780;2023-05-29T08:24:03;23.47;;;21.67;;
15929;SDS011;8064;51.142;4.780;2023-05-29T08:26:30;23.33;;;21.03;;
15929;SDS011;8064;51.142;4.780;2023-05-29T08:28:56;23.00;;;21.07;;
15929;SDS011;8064;51.142;4.780;2023-05-29T08:31:22;25.57;;;23.33;;
15929;SDS011;8064;51.142;4.780;2023-05-29T08:33:50;24.03;;;21.93;;
15929;SDS011;8064;51.142;4.780;2023-05-29T08:36:17;26.67;;;24.43;;
15929;SDS011;8064;51.142;4.780;2023-05-29T08:38:43;26.20;;;24.27;;
15929;SDS011;8064;51.142;4.780;2023-05-29T08:41:08;26.90;;;24.80;;
15929;SDS011;8064;51.142;4.780;2023-05-29T08:43:39;26.53;;;24.60;;
15929;SDS011;8064;51.142;4.780;2023-05-29T08:46:07;26.90;;;24.77;;
15929;SDS011;8064;51.142;4.780;2023-05-29T08:48:34;28.13;;;25.90;;
15929;SDS011;8064;51.142;4.780;2023-05-29T08:51:04;25.17;;;23.17;;
15929;SDS011;8064;51.142;4.780;2023-05-29T08:53:32;25.77;;;23.50;;
15929;SDS011;8064;51.142;4.780;2023-05-29T08:55:59;26.30;;;24.23;;
15929;SDS011;8064;51.142;4.780;2023-05-29T08:58:26;26.87;;;24.70;;
15929;SDS011;8064;51.142;4.780;2023-05-29T09:00:52;25.70;;;23.88;;
15929;SDS011;8064;51.142;4.780;2023-05-29T09:03:18;26.63;;;24.63;;
15929;SDS011;8064;51.142;4.780;2023-05-29T09:05:45;26.80;;;24.83;;
15929;SDS011;8064;51.142;4.780;2023-05-29T09:08:11;30.38;;;28.27;;
15929;SDS011;8064;51.142;4.780;2023-05-29T09:10:39;30.65;;;28.65;;
15929;SDS011;8064;51.142;4.780;2023-05-29T09:13:06;27.97;;;26.17;;
15929;SDS011;8064;51.142;4.780;2023-05-29T09:15:34;27.45;;;25.20;;
15929;SDS011;8064;51.142;4.780;2023-05-29T09:18:00;26.02;;;24.25;;
15929;SDS011;8064;51.142;4.780;2023-05-29T09:20:26;28.65;;;26.65;;
15929;SDS011;8064;51.142;4.780;2023-05-29T09:28:22;27.88;;;25.73;;
15929;SDS011;8064;51.142;4.780;2023-05-29T09:30:49;27.40;;;25.30;;
15929;SDS011;8064;51.142;4.780;2023-05-29T09:33:15;30.90;;;28.58;;
15929;SDS011;8064;51.142;4.780;2023-05-29T09:35:42;30.02;;;28.05;;
15929;SDS011;8064;51.142;4.780;2023-05-29T09:38:11;30.35;;;28.00;;
15929;SDS011;8064;51.142;4.780;2023-05-29T09:40:40;31.98;;;29.52;;
15929;SDS011;8064;51.142;4.780;2023-05-29T09:43:11;35.10;;;33.05;;
15929;SDS011;8064;51.142;4.780;2023-05-29T09:45:39;35.67;;;33.05;;
15929;SDS011;8064;51.142;4.780;2023-05-29T09:48:07;31.25;;;28.92;;
15929;SDS011;8064;51.142;4.780;2023-05-29T09:50:36;34.92;;;32.45;;
15929;SDS011;8064;51.142;4.780;2023-05-29T09:53:02;33.50;;;31.30;;
15929;SDS011;8064;51.142;4.780;2023-05-29T09:55:28;34.38;;;32.30;;
15929;SDS011;8064;51.142;4.780;2023-05-29T09:57:57;35.75;;;33.65;;
15929;SDS011;8064;51.142;4.780;2023-05-29T10:00:23;32.30;;;30.27;;
15929;SDS011;8064;51.142;4.780;2023-05-29T10:02:49;34.60;;;32.35;;
15929;SDS011;8064;51.142;4.780;2023-05-29T10:05:16;33.08;;;30.77;;
15929;SDS011;8064;51.142;4.780;2023-05-29T10:07:44;33.72;;;31.60;;
15929;SDS011;8064;51.142;4.780;2023-05-29T10:10:12;32.55;;;30.25;;
15929;SDS011;8064;51.142;4.780;2023-05-29T10:12:41;33.92;;;31.83;;
15929;SDS011;8064;51.142;4.780;2023-05-29T10:15:12;33.03;;;30.88;;
15929;SDS011;8064;51.142;4.780;2023-05-29T10:17:39;35.35;;;33.15;;
15929;SDS011;8064;51.142;4.780;2023-05-29T10:20:15;34.17;;;31.73;;
15929;SDS011;8064;51.142;4.780;2023-05-29T10:22:45;32.00;;;30.00;;
15929;SDS011;8064;51.142;4.780;2023-05-29T10:25:13;33.10;;;30.90;;
15929;SDS011;8064;51.142;4.780;2023-05-29T10:27:42;31.80;;;29.77;;
15929;SDS011;8064;51.142;4.780;2023-05-29T10:30:10;34.17;;;31.85;;
15929;SDS011;8064;51.142;4.780;2023-05-29T10:32:55;37.47;;;35.13;;
15929;SDS011;8064;51.142;4.780;2023-05-29T10:38:25;36.65;;;34.42;;
15929;SDS011;8064;51.142;4.780;2023-05-29T10:40:51;36.53;;;34.33;;
15929;SDS011;8064;51.142;4.780;2023-05-29T10:46:00;36.13;;;34.13;;
15929;SDS011;8064;51.142;4.780;2023-05-29T10:50:54;36.92;;;34.38;;
15929;SDS011;8064;51.142;4.780;2023-05-29T10:55:59;37.85;;;35.55;;
15929;SDS011;8064;51.142;4.780;2023-05-29T10:58:27;35.78;;;33.42;;
15929;SDS011;8064;51.142;4.780;2023-05-29T11:00:55;37.10;;;34.97;;
15929;SDS011;8064;51.142;4.780;2023-05-29T11:03:23;36.67;;;34.20;;
15929;SDS011;8064;51.142;4.780;2023-05-29T11:08:55;34.67;;;32.72;;
15929;SDS011;8064;51.142;4.780;2023-05-29T11:11:32;35.80;;;33.55;;
15929;SDS011;8064;51.142;4.780;2023-05-29T11:14:02;35.45;;;33.35;;
15929;SDS011;8064;51.142;4.780;2023-05-29T11:18:55;34.92;;;32.85;;
15929;SDS011;8064;51.142;4.780;2023-05-29T11:21:24;37.60;;;35.25;;
15929;SDS011;8064;51.142;4.780;2023-05-29T11:24:21;35.78;;;33.28;;
15929;SDS011;8064;51.142;4.780;2023-05-29T11:26:49;34.92;;;32.92;;
15929;SDS011;8064;51.142;4.780;2023-05-29T11:29:18;36.03;;;33.78;;
15929;SDS011;8064;51.142;4.780;2023-05-29T11:31:48;35.67;;;33.60;;
15929;SDS011;8064;51.142;4.780;2023-05-29T11:34:21;34.70;;;32.90;;
15929;SDS011;8064;51.142;4.780;2023-05-29T11:36:48;37.38;;;34.83;;
15929;SDS011;8064;51.142;4.780;2023-05-29T11:39:16;36.72;;;34.53;;
15929;SDS011;8064;51.142;4.780;2023-05-29T11:41:42;37.25;;;34.97;;
15929;SDS011;8064;51.142;4.780;2023-05-29T11:44:08;35.20;;;33.28;;
15929;SDS011;8064;51.142;4.780;2023-05-29T11:46:33;33.90;;;31.98;;
15929;SDS011;8064;51.142;4.780;2023-05-29T11:49:00;35.42;;;33.22;;
15929;SDS011;8064;51.142;4.780;2023-05-29T11:51:26;37.88;;;35.75;;
15929;SDS011;8064;51.142;4.780;2023-05-29T11:53:52;37.33;;;34.72;;
15929;SDS011;8064;51.142;4.780;2023-05-29T11:56:23;35.00;;;32.80;;
15929;SDS011;8064;51.142;4.780;2023-05-29T11:58:51;35.60;;;33.30;;
15929;SDS011;8064;51.142;4.780;2023-05-29T12:01:24;36.88;;;34.40;;
15929;SDS011;8064;51.142;4.780;2023-05-29T12:03:50;34.60;;;32.50;;
15929;SDS011;8064;51.142;4.780;2023-05-29T12:06:16;34.97;;;32.70;;
15929;SDS011;8064;51.142;4.780;2023-05-29T12:08:57;36.42;;;33.75;;
15929;SDS011;8064;51.142;4.780;2023-05-29T12:11:23;36.35;;;33.90;;
15929;SDS011;8064;51.142;4.780;2023-05-29T12:13:55;36.40;;;34.25;;
15929;SDS011;8064;51.142;4.780;2023-05-29T12:16:34;36.03;;;33.83;;
15929;SDS011;8064;51.142;4.780;2023-05-29T12:19:00;37.15;;;34.50;;
15929;SDS011;8064;51.142;4.780;2023-05-29T12:21:26;38.15;;;35.67;;
15929;SDS011;8064;51.142;4.780;2023-05-29T12:23:52;37.17;;;34.45;;
15929;SDS011;8064;51.142;4.780;2023-05-29T12:26:21;36.03;;;33.63;;
15929;SDS011;8064;51.142;4.780;2023-05-29T12:28:48;35.28;;;32.83;;
15929;SDS011;8064;51.142;4.780;2023-05-29T12:31:26;35.42;;;33.35;;
15929;SDS011;8064;51.142;4.780;2023-05-29T12:33:58;36.05;;;33.55;;
15929;SDS011;8064;51.142;4.780;2023-05-29T12:36:26;33.53;;;31.52;;
15929;SDS011;8064;51.142;4.780;2023-05-29T12:38:52;37.13;;;34.80;;
15929;SDS011;8064;51.142;4.780;2023-05-29T12:44:01;34.88;;;32.88;;
15929;SDS011;8064;51.142;4.780;2023-05-29T12:46:34;34.33;;;32.00;;
15929;SDS011;8064;51.142;4.780;2023-05-29T12:49:13;37.13;;;34.92;;
15929;SDS011;8064;51.142;4.780;2023-05-29T12:51:41;34.42;;;32.08;;
15929;SDS011;8064;51.142;4.780;2023-05-29T12:54:10;35.63;;;33.30;;
15929;SDS011;8064;51.142;4.780;2023-05-29T12:56:37;36.85;;;34.75;;
15929;SDS011;8064;51.142;4.780;2023-05-29T12:59:05;36.78;;;34.08;;
15929;SDS011;8064;51.142;4.780;2023-05-29T13:01:33;37.03;;;34.67;;
15929;SDS011;8064;51.142;4.780;2023-05-29T13:03:59;36.45;;;33.92;;
15929;SDS011;8064;51.142;4.780;2023-05-29T13:06:25;35.53;;;33.35;;
15929;SDS011;8064;51.142;4.780;2023-05-29T13:08:51;36.40;;;34.08;;
15929;SDS011;8064;51.142;4.780;2023-05-29T13:11:17;36.00;;;33.58;;
15929;SDS011;8064;51.142;4.780;2023-05-29T13:13:43;36.38;;;33.95;;
15929;SDS011;8064;51.142;4.780;2023-05-29T13:16:09;35.50;;;33.33;;
15929;SDS011;8064;51.142;4.780;2023-05-29T13:18:34;36.60;;;34.33;;
15929;SDS011;8064;51.142;4.780;2023-05-29T13:21:00;35.70;;;33.63;;
15929;SDS011;8064;51.142;4.780;2023-05-29T13:23:26;37.47;;;35.00;;
15929;SDS011;8064;51.142;4.780;2023-05-29T13:25:52;37.13;;;34.83;;
15929;SDS011;8064;51.142;4.780;2023-05-29T13:28:18;35.08;;;32.83;;
15929;SDS011;8064;51.142;4.780;2023-05-29T13:30:44;35.00;;;32.70;;
15929;SDS011;8064;51.142;4.780;2023-05-29T13:33:10;36.17;;;33.83;;
15929;SDS011;8064;51.142;4.780;2023-05-29T13:35:36;37.13;;;34.83;;
15929;SDS011;8064;51.142;4.780;2023-05-29T13:38:01;38.00;;;35.47;;
15929;SDS011;8064;51.142;4.780;2023-05-29T13:40:27;36.55;;;34.45;;
15929;SDS011;8064;51.142;4.780;2023-05-29T13:42:53;35.28;;;33.17;;
15929;SDS011;8064;51.142;4.780;2023-05-29T13:45:20;37.15;;;35.03;;
15929;SDS011;8064;51.142;4.780;2023-05-29T13:47:46;38.45;;;36.03;;
15929;SDS011;8064;51.142;4.780;2023-05-29T13:50:11;35.67;;;33.50;;
15929;SDS011;8064;51.142;4.780;2023-05-29T13:52:38;37.75;;;35.25;;
15929;SDS011;8064;51.142;4.780;2023-05-29T13:55:04;38.08;;;35.75;;
15929;SDS011;8064;51.142;4.780;2023-05-29T13:57:33;37.95;;;35.53;;
15929;SDS011;8064;51.142;4.780;2023-05-29T14:00:00;35.60;;;33.50;;
15929;SDS011;8064;51.142;4.780;2023-05-29T14:02:26;36.83;;;34.60;;
15929;SDS011;8064;51.142;4.780;2023-05-29T14:04:52;35.83;;;33.65;;
15929;SDS011;8064;51.142;4.780;2023-05-29T14:07:17;36.15;;;33.75;;
15929;SDS011;8064;51.142;4.780;2023-05-29T14:09:43;34.83;;;32.75;;
15929;SDS011;8064;51.142;4.780;2023-05-29T14:12:09;36.78;;;34.58;;
15929;SDS011;8064;51.142;4.780;2023-05-29T14:14:35;35.35;;;33.05;;
15929;SDS011;8064;51.142;4.780;2023-05-29T14:17:01;35.80;;;33.83;;
15929;SDS011;8064;51.142;4.780;2023-05-29T14:19:27;34.83;;;32.63;;
15929;SDS011;8064;51.142;4.780;2023-05-29T14:21:53;35.83;;;33.63;;
15929;SDS011;8064;51.142;4.780;2023-05-29T14:24:19;36.45;;;34.20;;
15929;SDS011;8064;51.142;4.780;2023-05-29T14:26:45;35.85;;;33.55;;
15929;SDS011;8064;51.142;4.780;2023-05-29T14:29:12;36.72;;;34.38;;
15929;SDS011;8064;51.142;4.780;2023-05-29T14:31:40;37.63;;;35.33;;
15929;SDS011;8064;51.142;4.780;2023-05-29T14:34:07;35.83;;;33.72;;
15929;SDS011;8064;51.142;4.780;2023-05-29T14:36:32;36.35;;;34.15;;
15929;SDS011;8064;51.142;4.780;2023-05-29T14:38:58;37.03;;;34.78;;
15929;SDS011;8064;51.142;4.780;2023-05-29T14:41:24;35.00;;;32.70;;
15929;SDS011;8064;51.142;4.780;2023-05-29T14:43:50;35.13;;;32.97;;
15929;SDS011;8064;51.142;4.780;2023-05-29T14:46:17;35.80;;;33.70;;
15929;SDS011;8064;51.142;4.780;2023-05-29T14:48:42;37.88;;;35.63;;
15929;SDS011;8064;51.142;4.780;2023-05-29T14:51:09;35.60;;;33.53;;
15929;SDS011;8064;51.142;4.780;2023-05-29T14:53:35;35.78;;;33.47;;
15929;SDS011;8064;51.142;4.780;2023-05-29T14:56:01;38.20;;;35.72;;
15929;SDS011;8064;51.142;4.780;2023-05-29T14:58:27;37.28;;;35.03;;
15929;SDS011;8064;51.142;4.780;2023-05-29T15:00:53;36.72;;;34.42;;
15929;SDS011;8064;51.142;4.780;2023-05-29T15:03:19;37.55;;;35.35;;